Quenames — WTU9038 — position and weather

sailwx.info

Track history (hours):
 
Tides and Currents Weather Stations Pressure Air Temp Water Temp Dewpoint Dewpoint Depression Visibility Wind Speed Wind Dir Waves Ship Positions

Quenames

Owner: BOSTON MARINE TRANSPORT INC, EAST BOSTON, MA. More information available from US FCC via Universal Licensing System and Coast Guard Vessel Documentation Center.

Last reported at 2016-Sep-30 08:33 UTC. Time now 2016-Sep-30 10:05 UTC.
Position N 40°48' W 073°59'.

Length 23 m; draft 3 m.

Type: Tug. MMSI: 367022790.

Date/timePositionNaut miles runAvg speedWind from/ knotsBaromVisibWave heightAir tempDewpointWater temp
2016-Sep-30 08:33N 40°48' W 073°59'9 4.6
2016-Sep-30 06:33N 40°40' W 074°03'11 3.8
2016-Sep-30 03:33N 40°33' W 074°15'0 0.0
2016-Sep-29 21:26N 40°33' W 074°15'0 0.0
2016-Sep-29 20:33N 40°33' W 074°15'3 2.3
2016-Sep-29 19:09N 40°35' W 074°12'20 7.6
2016-Sep-29 16:32N 40°51' W 073°57'8 0.4
2016-Sep-28 21:33N 40°44' W 074°01'11 5.2
2016-Sep-28 19:27N 40°37' W 074°12'5 0.2
2016-Sep-27 19:32N 40°33' W 074°15'0 0.0
2016-Sep-27 14:33N 40°33' W 074°15'0 0.0
2016-Sep-27 13:33N 40°33' W 074°15'9 0.7
2016-Sep-27 00:33N 40°39' W 074°07'0 0.0
2016-Sep-26 20:33N 40°39' W 074°07'3 2.6
2016-Sep-26 19:33N 40°39' W 074°10'7 1.1
2016-Sep-26 13:14N 40°33' W 074°15'0 0.0
2016-Sep-26 11:33N 40°33' W 074°15'0 0.0
2016-Sep-26 08:32N 40°33' W 074°15'4 0.6
2016-Sep-26 02:32N 40°36' W 074°12'2 0.1
2016-Sep-25 00:33N 40°37' W 074°12'12 6.2
2016-Sep-24 22:33N 40°44' W 073°58'8 7.5
2016-Sep-24 21:33N 40°48' W 073°50'168 6.5
2016-Sep-23 19:33N 42°17' W 070°40'13 6.3
2016-Sep-23 17:33N 42°21' W 070°56'4 4.4
2016-Sep-23 16:33N 42°21' W 071°02'0 0.0
2016-Sep-23 15:33N 42°21' W 071°02'0 0.0
2016-Sep-23 13:33N 42°21' W 071°02'3 0.6
2016-Sep-23 09:33N 42°23' W 071°03'0 0.0
2016-Sep-23 06:33N 42°23' W 071°03'0 0.0
2016-Sep-23 04:30N 42°23' W 071°03'0 0.0
2016-Sep-23 03:33N 42°23' W 071°03'0 0.0
2016-Sep-23 02:32N 42°23' W 071°03'0 0.0
2016-Sep-23 01:30N 42°23' W 071°03'0 0.0
2016-Sep-23 00:33N 42°23' W 071°03'0 0.0
2016-Sep-22 23:33N 42°23' W 071°03'0 0.0
2016-Sep-22 20:33N 42°23' W 071°03'0 0.0
2016-Sep-22 12:33N 42°23' W 071°03'0 0.0
2016-Sep-22 04:33N 42°23' W 071°03'0 0.0
2016-Sep-22 03:33N 42°23' W 071°03'0 0.0
2016-Sep-22 00:33N 42°23' W 071°03'2 2.0
2016-Sep-21 23:33N 42°21' W 071°02'5 5.5
2016-Sep-21 22:33N 42°19' W 070°55'18 6.0
2016-Sep-21 19:33N 42°09' W 070°35'61 5.4
2016-Sep-21 08:15N 41°18' W 071°19'125 5.8
2016-Sep-20 10:33N 40°43' W 073°59'5 2.7
2016-Sep-20 08:33N 40°39' W 074°03'  
Track history (hours):
 
Tides and Currents Weather Stations Pressure Air Temp Water Temp Dewpoint Dewpoint Depression Visibility Wind Speed Wind Dir Waves Ship Positions

Quenames

Owner: BOSTON MARINE TRANSPORT INC, EAST BOSTON, MA. More information available from US FCC via Universal Licensing System and Coast Guard Vessel Documentation Center.

Last reported at 2016-Sep-30 08:33 UTC. Time now 2016-Sep-30 10:05 UTC.
Position N 40°48' W 073°59'.

Length 23 m; draft 3 m.

Type: Tug. MMSI: 367022790.

Date/timePositionNaut miles runAvg speedWind from/ knotsBaromVisibWave heightAir tempDewpointWater temp
2016-Sep-30 08:33N 40°48' W 073°59'9 4.6
2016-Sep-30 06:33N 40°40' W 074°03'11 3.8
2016-Sep-30 03:33N 40°33' W 074°15'0 0.0
2016-Sep-29 21:26N 40°33' W 074°15'0 0.0
2016-Sep-29 20:33N 40°33' W 074°15'3 2.3
2016-Sep-29 19:09N 40°35' W 074°12'20 7.6
2016-Sep-29 16:32N 40°51' W 073°57'8 0.4
2016-Sep-28 21:33N 40°44' W 074°01'11 5.2
2016-Sep-28 19:27N 40°37' W 074°12'5 0.2
2016-Sep-27 19:32N 40°33' W 074°15'0 0.0
2016-Sep-27 14:33N 40°33' W 074°15'0 0.0
2016-Sep-27 13:33N 40°33' W 074°15'9 0.7
2016-Sep-27 00:33N 40°39' W 074°07'0 0.0
2016-Sep-26 20:33N 40°39' W 074°07'3 2.6
2016-Sep-26 19:33N 40°39' W 074°10'7 1.1
2016-Sep-26 13:14N 40°33' W 074°15'0 0.0
2016-Sep-26 11:33N 40°33' W 074°15'0 0.0
2016-Sep-26 08:32N 40°33' W 074°15'4 0.6
2016-Sep-26 02:32N 40°36' W 074°12'2 0.1
2016-Sep-25 00:33N 40°37' W 074°12'12 6.2
2016-Sep-24 22:33N 40°44' W 073°58'8 7.5
2016-Sep-24 21:33N 40°48' W 073°50'168 6.5
2016-Sep-23 19:33N 42°17' W 070°40'13 6.3
2016-Sep-23 17:33N 42°21' W 070°56'4 4.4
2016-Sep-23 16:33N 42°21' W 071°02'0 0.0
2016-Sep-23 15:33N 42°21' W 071°02'0 0.0
2016-Sep-23 13:33N 42°21' W 071°02'3 0.6
2016-Sep-23 09:33N 42°23' W 071°03'0 0.0
2016-Sep-23 06:33N 42°23' W 071°03'0 0.0
2016-Sep-23 04:30N 42°23' W 071°03'0 0.0
2016-Sep-23 03:33N 42°23' W 071°03'0 0.0
2016-Sep-23 02:32N 42°23' W 071°03'0 0.0
2016-Sep-23 01:30N 42°23' W 071°03'0 0.0
2016-Sep-23 00:33N 42°23' W 071°03'0 0.0
2016-Sep-22 23:33N 42°23' W 071°03'0 0.0
2016-Sep-22 20:33N 42°23' W 071°03'0 0.0
2016-Sep-22 12:33N 42°23' W 071°03'0 0.0
2016-Sep-22 04:33N 42°23' W 071°03'0 0.0
2016-Sep-22 03:33N 42°23' W 071°03'0 0.0
2016-Sep-22 00:33N 42°23' W 071°03'2 2.0
2016-Sep-21 23:33N 42°21' W 071°02'5 5.5
2016-Sep-21 22:33N 42°19' W 070°55'18 6.0
2016-Sep-21 19:33N 42°09' W 070°35'61 5.4
2016-Sep-21 08:15N 41°18' W 071°19'125 5.8
2016-Sep-20 10:33N 40°43' W 073°59'5 2.7
2016-Sep-20 08:33N 40°39' W 074°03'  

Dump ship's entire track history